X  Close Metar Aviation Weather Data     EHKD De Kooy Airport
Temperature
63°F Temperature
52°F Dewpoint
68% Humidity



Wind
12 MPH
19 KM/H
5 M/S
10 KTS



320°
NW
Current Conditions

Partly Cloudy Partly Cloudy
Pressure 1021 (hPa) - 30.15 (inHg)
Visibility 6 (mile) - 9.7 (km)
Airport
Airport-code EHKD

Location: De Kooy Airport
Distance: 34 (mi)

Metar:
EHKD 191325Z AUTO 32010KT 260V040 9999 FEW027 17/11 Q1021 BLU NOSIG

Time: 19-06-2024 15:25 CEST